EJU79CB LIRN-LICJ
Flight info
| Callsign | EJU79CB |
|---|---|
| Flight time | 0h 37m |
| Altitude | 25000 |
| Route | DELER DCT AMANO DCT ROSAS |
| Aircraft | A320/M-SDE3FGHIRWY/LB1 |
Departure
| Time | 2026-05-07 14:27 |
|---|---|
| Airport | Naples International Airport (LIRN) |
Arrival
| Time | 2026-05-07 15:05 |
|---|---|
| Airport | Falcone–Borsellino Airport (LICJ) |
| Time | Latitude | Longitude | Altitude | Speed | Heading |
|---|---|---|---|---|---|
| 2026-05-07 13:55 | 40.87874 | 14.28342 | 290 ft | 0 kts | 187° |
| 2026-05-07 14:17 | 40.87882 | 14.28344 | 290 ft | 4 kts | 187° |
| 2026-05-07 14:17 | 40.87909 | 14.28348 | 291 ft | 4 kts | 193° |
| 2026-05-07 14:17 | 40.87932 | 14.28361 | 293 ft | 4 kts | 227° |
| 2026-05-07 14:17 | 40.87941 | 14.28386 | 299 ft | 2 kts | 276° |
| 2026-05-07 14:18 | 40.87941 | 14.28387 | 299 ft | 0 kts | 276° |
| 2026-05-07 14:20 | 40.87941 | 14.28386 | 299 ft | 1 kts | 276° |
| 2026-05-07 14:21 | 40.87943 | 14.28357 | 292 ft | 6 kts | 276° |
| 2026-05-07 14:21 | 40.87950 | 14.28284 | 290 ft | 7 kts | 277° |
| 2026-05-07 14:21 | 40.87955 | 14.28230 | 291 ft | 4 kts | 277° |
| 2026-05-07 14:21 | 40.87966 | 14.28157 | 294 ft | 10 kts | 296° |
| 2026-05-07 14:22 | 40.88022 | 14.28149 | 291 ft | 9 kts | 37° |
| 2026-05-07 14:22 | 40.88063 | 14.28246 | 293 ft | 13 kts | 77° |
| 2026-05-07 14:22 | 40.88059 | 14.28366 | 287 ft | 13 kts | 96° |
| 2026-05-07 14:22 | 40.88048 | 14.28486 | 285 ft | 13 kts | 97° |
| 2026-05-07 14:23 | 40.88047 | 14.28603 | 287 ft | 13 kts | 70° |
| 2026-05-07 14:23 | 40.88107 | 14.28713 | 281 ft | 19 kts | 52° |
| 2026-05-07 14:23 | 40.88194 | 14.28864 | 277 ft | 22 kts | 52° |
| 2026-05-07 14:23 | 40.88295 | 14.29038 | 273 ft | 25 kts | 52° |
| 2026-05-07 14:24 | 40.88409 | 14.29235 | 268 ft | 29 kts | 52° |
| 2026-05-07 14:24 | 40.88536 | 14.29454 | 262 ft | 28 kts | 52° |
| 2026-05-07 14:24 | 40.88662 | 14.29673 | 255 ft | 32 kts | 52° |
| 2026-05-07 14:24 | 40.88790 | 14.29894 | 248 ft | 25 kts | 52° |
| 2026-05-07 14:25 | 40.88881 | 14.30051 | 243 ft | 23 kts | 52° |
| 2026-05-07 14:25 | 40.88946 | 14.30165 | 239 ft | 8 kts | 52° |
| 2026-05-07 14:25 | 40.88997 | 14.30171 | 238 ft | 8 kts | 328° |
| 2026-05-07 14:25 | 40.89039 | 14.30134 | 238 ft | 7 kts | 326° |
| 2026-05-07 14:26 | 40.89073 | 14.30104 | 238 ft | 5 kts | 325° |
| 2026-05-07 14:26 | 40.89075 | 14.30079 | 238 ft | 1 kts | 259° |
| 2026-05-07 14:26 | 40.89068 | 14.30059 | 239 ft | 0 kts | 238° |
| 2026-05-07 14:27 | 40.88954 | 14.29818 | 247 ft | 71 kts | 238° |
| 2026-05-07 14:27 | 40.88570 | 14.29008 | 269 ft | 134 kts | 238° |
| 2026-05-07 14:27 | 40.88013 | 14.27807 | 627 ft | 158 kts | 238° |
| 2026-05-07 14:27 | 40.87250 | 14.26734 | 1292 ft | 167 kts | 209° |
| 2026-05-07 14:28 | 40.86108 | 14.26501 | 1986 ft | 172 kts | 171° |
| 2026-05-07 14:28 | 40.84919 | 14.26726 | 2640 ft | 173 kts | 172° |
| 2026-05-07 14:28 | 40.83728 | 14.26907 | 3292 ft | 171 kts | 173° |
| 2026-05-07 14:28 | 40.82515 | 14.27072 | 3731 ft | 185 kts | 173° |
| 2026-05-07 14:29 | 40.81187 | 14.27252 | 4151 ft | 195 kts | 172° |
| 2026-05-07 14:29 | 40.79829 | 14.27436 | 4733 ft | 198 kts | 172° |
| 2026-05-07 14:29 | 40.78454 | 14.27622 | 5318 ft | 199 kts | 172° |
| 2026-05-07 14:29 | 40.77071 | 14.27808 | 5931 ft | 201 kts | 172° |
| 2026-05-07 14:30 | 40.75678 | 14.27993 | 6519 ft | 202 kts | 172° |
| 2026-05-07 14:30 | 40.74277 | 14.28178 | 7065 ft | 203 kts | 173° |
| 2026-05-07 14:30 | 40.72870 | 14.28366 | 7629 ft | 204 kts | 173° |
| 2026-05-07 14:30 | 40.71453 | 14.28554 | 8191 ft | 205 kts | 172° |
| 2026-05-07 14:31 | 40.70048 | 14.28976 | 8628 ft | 214 kts | 163° |
| 2026-05-07 14:31 | 40.68538 | 14.29556 | 8799 ft | 239 kts | 163° |
| 2026-05-07 14:31 | 40.66861 | 14.30203 | 9113 ft | 263 kts | 163° |
| 2026-05-07 14:31 | 40.65042 | 14.30903 | 9586 ft | 279 kts | 163° |
| 2026-05-07 14:32 | 40.63150 | 14.31632 | 10213 ft | 290 kts | 163° |
| 2026-05-07 14:32 | 40.61135 | 14.32404 | 10473 ft | 313 kts | 164° |
| 2026-05-07 14:32 | 40.58985 | 14.33087 | 11029 ft | 322 kts | 175° |
| 2026-05-07 14:32 | 40.56754 | 14.32804 | 11752 ft | 326 kts | 197° |
| 2026-05-07 14:33 | 40.54605 | 14.31827 | 12562 ft | 327 kts | 200° |
| 2026-05-07 14:33 | 40.52462 | 14.30816 | 13380 ft | 328 kts | 200° |
| 2026-05-07 14:33 | 40.50313 | 14.29799 | 14118 ft | 329 kts | 200° |
| 2026-05-07 14:33 | 40.48148 | 14.28777 | 14761 ft | 332 kts | 201° |
| 2026-05-07 14:34 | 40.45989 | 14.27764 | 15373 ft | 336 kts | 201° |
| 2026-05-07 14:34 | 40.43778 | 14.26728 | 15977 ft | 339 kts | 201° |
| 2026-05-07 14:34 | 40.41541 | 14.25678 | 16590 ft | 343 kts | 201° |
| 2026-05-07 14:34 | 40.39282 | 14.24613 | 17198 ft | 347 kts | 202° |
| 2026-05-07 14:35 | 40.37000 | 14.23536 | 17804 ft | 350 kts | 202° |
| 2026-05-07 14:35 | 40.34694 | 14.22454 | 18380 ft | 354 kts | 202° |
| 2026-05-07 14:35 | 40.32360 | 14.21365 | 18928 ft | 357 kts | 202° |
| 2026-05-07 14:35 | 40.30011 | 14.20272 | 19461 ft | 360 kts | 202° |
| 2026-05-07 14:36 | 40.27647 | 14.19172 | 20026 ft | 361 kts | 203° |
| 2026-05-07 14:36 | 40.25271 | 14.18070 | 20563 ft | 363 kts | 204° |
| 2026-05-07 14:36 | 40.22891 | 14.16967 | 21163 ft | 363 kts | 204° |
| 2026-05-07 14:36 | 40.20502 | 14.15859 | 21723 ft | 364 kts | 204° |
| 2026-05-07 14:37 | 40.18106 | 14.14744 | 22253 ft | 366 kts | 204° |
| 2026-05-07 14:37 | 40.13286 | 14.12485 | 23323 ft | 369 kts | 205° |
| 2026-05-07 14:37 | 40.10865 | 14.11348 | 23770 ft | 371 kts | 205° |
| 2026-05-07 14:38 | 40.08429 | 14.10209 | 24053 ft | 372 kts | 205° |
| 2026-05-07 14:38 | 40.06017 | 14.09087 | 24287 ft | 374 kts | 205° |
| 2026-05-07 14:38 | 40.03542 | 14.07935 | 24508 ft | 381 kts | 205° |
| 2026-05-07 14:38 | 40.01025 | 14.06761 | 24731 ft | 388 kts | 205° |
| 2026-05-07 14:39 | 39.98452 | 14.05562 | 24897 ft | 396 kts | 205° |
| 2026-05-07 14:39 | 39.95829 | 14.04343 | 24942 ft | 402 kts | 205° |
| 2026-05-07 14:39 | 39.93184 | 14.03123 | 24945 ft | 404 kts | 205° |
| 2026-05-07 14:39 | 39.90532 | 14.01902 | 24945 ft | 404 kts | 205° |
| 2026-05-07 14:40 | 39.87882 | 14.00680 | 24942 ft | 404 kts | 205° |
| 2026-05-07 14:40 | 39.85229 | 13.99455 | 24943 ft | 404 kts | 205° |
| 2026-05-07 14:40 | 39.82576 | 13.98231 | 24943 ft | 404 kts | 205° |
| 2026-05-07 14:40 | 39.79924 | 13.97008 | 24938 ft | 404 kts | 205° |
| 2026-05-07 14:41 | 39.77271 | 13.95783 | 24935 ft | 404 kts | 205° |
| 2026-05-07 14:41 | 39.74621 | 13.94558 | 24937 ft | 404 kts | 205° |
| 2026-05-07 14:41 | 39.71971 | 13.93336 | 24936 ft | 404 kts | 205° |
| 2026-05-07 14:41 | 39.69354 | 13.92130 | 24935 ft | 404 kts | 205° |
| 2026-05-07 14:42 | 39.66700 | 13.90910 | 24931 ft | 404 kts | 205° |
| 2026-05-07 14:42 | 39.64046 | 13.89688 | 24930 ft | 404 kts | 205° |
| 2026-05-07 14:42 | 39.61399 | 13.88471 | 24906 ft | 404 kts | 205° |
| 2026-05-07 14:42 | 39.58750 | 13.87255 | 24910 ft | 404 kts | 204° |
| 2026-05-07 14:43 | 39.56094 | 13.86040 | 24914 ft | 404 kts | 204° |
| 2026-05-07 14:43 | 39.53443 | 13.84827 | 24919 ft | 404 kts | 204° |
| 2026-05-07 14:43 | 39.50793 | 13.83615 | 24917 ft | 404 kts | 204° |
| 2026-05-07 14:43 | 39.48136 | 13.82397 | 24916 ft | 404 kts | 204° |
| 2026-05-07 14:44 | 39.45481 | 13.81181 | 24906 ft | 404 kts | 204° |
| 2026-05-07 14:44 | 39.42826 | 13.79967 | 24905 ft | 405 kts | 204° |
| 2026-05-07 14:44 | 39.40170 | 13.78760 | 24894 ft | 404 kts | 204° |
| 2026-05-07 14:44 | 39.37514 | 13.77558 | 24898 ft | 404 kts | 204° |
| 2026-05-07 14:45 | 39.34862 | 13.76358 | 24896 ft | 404 kts | 204° |
| 2026-05-07 14:45 | 39.32241 | 13.75173 | 24899 ft | 404 kts | 204° |
| 2026-05-07 14:45 | 39.29589 | 13.73972 | 24896 ft | 404 kts | 204° |
| 2026-05-07 14:45 | 39.26932 | 13.72769 | 24899 ft | 404 kts | 204° |
| 2026-05-07 14:46 | 39.24280 | 13.71569 | 24899 ft | 404 kts | 204° |
| 2026-05-07 14:46 | 39.21628 | 13.70367 | 24880 ft | 404 kts | 204° |
| 2026-05-07 14:46 | 39.18982 | 13.69167 | 24888 ft | 403 kts | 204° |
| 2026-05-07 14:46 | 39.16335 | 13.67974 | 24900 ft | 403 kts | 204° |
| 2026-05-07 14:47 | 39.13684 | 13.66784 | 24904 ft | 403 kts | 204° |
| 2026-05-07 14:47 | 39.11030 | 13.65594 | 24902 ft | 403 kts | 204° |
| 2026-05-07 14:47 | 39.08388 | 13.64405 | 24903 ft | 402 kts | 204° |
| 2026-05-07 14:47 | 39.05750 | 13.63217 | 24904 ft | 402 kts | 204° |
| 2026-05-07 14:48 | 39.03105 | 13.62030 | 24892 ft | 402 kts | 204° |
| 2026-05-07 14:48 | 39.00459 | 13.60845 | 24869 ft | 402 kts | 204° |
| 2026-05-07 14:48 | 38.97821 | 13.59662 | 24884 ft | 401 kts | 205° |
| 2026-05-07 14:48 | 38.95198 | 13.58487 | 24773 ft | 394 kts | 205° |
| 2026-05-07 14:49 | 38.92662 | 13.57360 | 24643 ft | 378 kts | 205° |
| 2026-05-07 14:49 | 38.90205 | 13.56267 | 24315 ft | 369 kts | 205° |
| 2026-05-07 14:49 | 38.87794 | 13.55178 | 23833 ft | 365 kts | 207° |
| 2026-05-07 14:49 | 38.85622 | 13.53680 | 23166 ft | 358 kts | 220° |
| 2026-05-07 14:50 | 38.83710 | 13.51576 | 22054 ft | 367 kts | 224° |
| 2026-05-07 14:50 | 38.81813 | 13.49347 | 21268 ft | 371 kts | 224° |
| 2026-05-07 14:50 | 38.79921 | 13.47085 | 20442 ft | 374 kts | 224° |
| 2026-05-07 14:50 | 38.77999 | 13.44769 | 19371 ft | 384 kts | 225° |
| 2026-05-07 14:51 | 38.76040 | 13.42409 | 18596 ft | 387 kts | 224° |
| 2026-05-07 14:51 | 38.74070 | 13.40054 | 17894 ft | 387 kts | 224° |
| 2026-05-07 14:51 | 38.72100 | 13.37716 | 17185 ft | 385 kts | 224° |
| 2026-05-07 14:51 | 38.70141 | 13.35390 | 16522 ft | 383 kts | 224° |
| 2026-05-07 14:52 | 38.68193 | 13.33073 | 15898 ft | 380 kts | 223° |
| 2026-05-07 14:52 | 38.66267 | 13.30788 | 15413 ft | 375 kts | 223° |
| 2026-05-07 14:52 | 38.64370 | 13.28540 | 14978 ft | 369 kts | 223° |
| 2026-05-07 14:52 | 38.62500 | 13.26328 | 14598 ft | 362 kts | 223° |
| 2026-05-07 14:53 | 38.60664 | 13.24159 | 14243 ft | 355 kts | 223° |
| 2026-05-07 14:53 | 38.58867 | 13.22028 | 13887 ft | 349 kts | 223° |
| 2026-05-07 14:53 | 38.57103 | 13.19932 | 13520 ft | 343 kts | 223° |
| 2026-05-07 14:53 | 38.55390 | 13.17900 | 13137 ft | 337 kts | 223° |
| 2026-05-07 14:54 | 38.53683 | 13.15880 | 12747 ft | 332 kts | 223° |
| 2026-05-07 14:54 | 38.51996 | 13.13888 | 12369 ft | 328 kts | 223° |
| 2026-05-07 14:54 | 38.50334 | 13.11926 | 12007 ft | 323 kts | 223° |
| 2026-05-07 14:54 | 38.48692 | 13.09993 | 11629 ft | 319 kts | 223° |
| 2026-05-07 14:55 | 38.47064 | 13.08080 | 11263 ft | 316 kts | 223° |
| 2026-05-07 14:55 | 38.45457 | 13.06192 | 10905 ft | 313 kts | 222° |
| 2026-05-07 14:55 | 38.43864 | 13.04323 | 10524 ft | 310 kts | 222° |
| 2026-05-07 14:55 | 38.42286 | 13.02469 | 10177 ft | 307 kts | 222° |
| 2026-05-07 14:56 | 38.40731 | 13.00638 | 9828 ft | 300 kts | 222° |
| 2026-05-07 14:56 | 38.39217 | 12.98857 | 9385 ft | 292 kts | 223° |
| 2026-05-07 14:56 | 38.37733 | 12.97115 | 8871 ft | 288 kts | 223° |
| 2026-05-07 14:56 | 38.36273 | 12.95401 | 8370 ft | 283 kts | 222° |
| 2026-05-07 14:57 | 38.34835 | 12.93714 | 7869 ft | 279 kts | 221° |
| 2026-05-07 14:57 | 38.33413 | 12.92052 | 7386 ft | 275 kts | 221° |
| 2026-05-07 14:57 | 38.32016 | 12.90417 | 6951 ft | 270 kts | 221° |
| 2026-05-07 14:57 | 38.30646 | 12.88817 | 6546 ft | 264 kts | 220° |
| 2026-05-07 14:58 | 38.29328 | 12.87278 | 6197 ft | 257 kts | 220° |
| 2026-05-07 14:58 | 38.28016 | 12.85743 | 5816 ft | 250 kts | 220° |
| 2026-05-07 14:58 | 38.26755 | 12.84308 | 5444 ft | 242 kts | 214° |
| 2026-05-07 14:58 | 38.25280 | 12.83338 | 5151 ft | 237 kts | 195° |
| 2026-05-07 14:59 | 38.23676 | 12.83025 | 4852 ft | 232 kts | 177° |
| 2026-05-07 14:59 | 38.22104 | 12.83344 | 4555 ft | 228 kts | 160° |
| 2026-05-07 14:59 | 38.20646 | 12.84103 | 4255 ft | 226 kts | 156° |
| 2026-05-07 14:59 | 38.19201 | 12.84887 | 3948 ft | 225 kts | 156° |
| 2026-05-07 15:00 | 38.17761 | 12.85665 | 3655 ft | 225 kts | 156° |
| 2026-05-07 15:00 | 38.16317 | 12.86442 | 3411 ft | 224 kts | 157° |
| 2026-05-07 15:00 | 38.15371 | 12.86951 | 3278 ft | 222 kts | 157° |
| 2026-05-07 15:00 | 38.13956 | 12.87714 | 3085 ft | 219 kts | 158° |
| 2026-05-07 15:01 | 38.12583 | 12.88473 | 2983 ft | 211 kts | 153° |
| 2026-05-07 15:01 | 38.11497 | 12.90327 | 2818 ft | 202 kts | 92° |
| 2026-05-07 15:01 | 38.11825 | 12.92010 | 2674 ft | 198 kts | 59° |
| 2026-05-07 15:01 | 38.12435 | 12.93568 | 2478 ft | 197 kts | 63° |
| 2026-05-07 15:02 | 38.12797 | 12.94635 | 2342 ft | 192 kts | 64° |
| 2026-05-07 15:02 | 38.13302 | 12.96184 | 2119 ft | 188 kts | 65° |
| 2026-05-07 15:02 | 38.13794 | 12.97704 | 1860 ft | 185 kts | 65° |
| 2026-05-07 15:02 | 38.14278 | 12.99184 | 1652 ft | 181 kts | 66° |
| 2026-05-07 15:03 | 38.14749 | 13.00608 | 1407 ft | 169 kts | 65° |
| 2026-05-07 15:03 | 38.15174 | 13.01897 | 1209 ft | 149 kts | 66° |
| 2026-05-07 15:03 | 38.15565 | 13.03059 | 984 ft | 137 kts | 68° |
| 2026-05-07 15:03 | 38.15944 | 13.04162 | 789 ft | 134 kts | 66° |
| 2026-05-07 15:04 | 38.16312 | 13.05265 | 621 ft | 135 kts | 68° |
| 2026-05-07 15:04 | 38.16656 | 13.06384 | 452 ft | 135 kts | 65° |
| 2026-05-07 15:04 | 38.17034 | 13.07471 | 319 ft | 134 kts | 65° |
| 2026-05-07 15:04 | 38.17401 | 13.08568 | 117 ft | 134 kts | 64° |
| 2026-05-07 15:05 | 38.17758 | 13.09612 | 53 ft | 115 kts | 67° |
| 2026-05-07 15:05 | 38.17957 | 13.10217 | 53 ft | 48 kts | 66° |
| 2026-05-07 15:05 | 38.18079 | 13.10574 | 53 ft | 41 kts | 67° |
| 2026-05-07 15:05 | 38.18141 | 13.10729 | 53 ft | 11 kts | 24° |
| 2026-05-07 15:06 | 38.18175 | 13.10662 | 53 ft | 10 kts | 276° |
| 2026-05-07 15:06 | 38.18182 | 13.10582 | 53 ft | 8 kts | 276° |
| 2026-05-07 15:06 | 38.18188 | 13.10513 | 53 ft | 7 kts | 276° |
| 2026-05-07 15:06 | 38.18194 | 13.10455 | 53 ft | 6 kts | 277° |
| 2026-05-07 15:07 | 38.18202 | 13.10408 | 53 ft | 5 kts | 295° |
| 2026-05-07 15:07 | 38.18236 | 13.10376 | 53 ft | 7 kts | 333° |
| 2026-05-07 15:07 | 38.18273 | 13.10353 | 53 ft | 5 kts | 333° |
| 2026-05-07 15:07 | 38.18301 | 13.10335 | 53 ft | 4 kts | 333° |
| 2026-05-07 15:08 | 38.18322 | 13.10321 | 53 ft | 3 kts | 333° |
| 2026-05-07 15:08 | 38.18346 | 13.10313 | 53 ft | 5 kts | 4° |
| 2026-05-07 15:08 | 38.18367 | 13.10342 | 51 ft | 7 kts | 64° |
| 2026-05-07 15:08 | 38.18385 | 13.10397 | 51 ft | 3 kts | 67° |
| 2026-05-07 15:09 | 38.18388 | 13.10408 | 53 ft | 0 kts | 67° |